Time,TemperatureF,DewpointF,PressureIn,WindDirection,WindDirectionDegrees,WindSpeedMPH,WindSpeedGustMPH,Humidity,HourlyPrecipIn,Conditions,Clouds,dailyrainin,SoftwareType,DateUTC
2013-03-22 00:00:00,25.2,-23.8,29.58,North,0,0.0,0.0,1,0.00,,,0.00,WUHU216HW,2013-03-22 04:00:00,
2013-03-22 00:05:00,25.0,-23.9,29.58,North,0,0.0,0.0,1,0.00,,,0.00,WUHU216HW,2013-03-22 04:05:00,
2013-03-22 00:10:00,24.8,-24.1,29.58,North,0,0.0,0.0,1,0.00,,,0.00,WUHU216HW,2013-03-22 04:10:00,
2013-03-22 00:15:00,25.0,-23.9,29.57,North,0,0.0,0.0,1,0.00,,,0.00,WUHU216HW,2013-03-22 04:15:00,
2013-03-22 00:20:00,25.2,-23.8,29.57,North,0,0.0,0.0,1,0.00,,,0.00,WUHU216HW,2013-03-22 04:20:00,
2013-03-22 00:25:00,25.4,-23.7,29.57,North,0,0.0,0.0,1,0.00,,,0.00,WUHU216HW,2013-03-22 04:25:00,
2013-03-22 00:30:00,25.6,-23.6,29.56,North,0,0.0,0.0,1,0.00,,,0.00,WUHU216HW,2013-03-22 04:30:00,
2013-03-22 00:35:00,25.2,-23.8,29.57,North,0,0.0,0.0,1,0.00,,,0.00,WUHU216HW,2013-03-22 04:35:00,
2013-03-22 00:40:00,25.0,-23.9,29.57,North,0,0.0,0.0,1,0.00,,,0.00,WUHU216HW,2013-03-22 04:40:00,
2013-03-22 00:45:00,24.7,-24.3,29.57,North,0,0.0,0.0,1,0.00,,,0.00,WUHU216HW,2013-03-22 04:45:00,
2013-03-22 00:50:00,24.1,-24.6,29.57,North,0,0.0,0.0,1,0.00,,,0.00,WUHU216HW,2013-03-22 04:50:00,
2013-03-22 00:55:00,23.6,-25.1,29.57,North,0,0.0,0.0,2,0.00,,,0.00,WUHU216HW,2013-03-22 04:55:00,
2013-03-22 01:00:00,23.4,-25.3,29.57,North,0,0.0,0.0,2,0.00,,,0.00,WUHU216HW,2013-03-22 05:00:00,
2013-03-22 01:05:00,23.4,-25.3,29.57,North,0,0.0,0.0,1,0.00,,,0.00,WUHU216HW,2013-03-22 05:05:00,
2013-03-22 01:10:00,23.6,-25.1,29.57,North,0,0.0,0.0,1,0.00,,,0.00,WUHU216HW,2013-03-22 05:10:00,
2013-03-22 01:15:00,23.6,-25.1,29.57,North,0,0.0,0.0,1,0.00,,,0.00,WUHU216HW,2013-03-22 05:15:00,
2013-03-22 01:20:00,23.6,-25.1,29.57,North,0,0.0,0.0,1,0.00,,,0.00,WUHU216HW,2013-03-22 05:20:00,
2013-03-22 01:25:00,23.4,-25.3,29.56,North,0,0.0,0.0,1,0.00,,,0.00,WUHU216HW,2013-03-22 05:25:00,
2013-03-22 01:30:00,23.4,-25.3,29.56,North,0,0.0,0.0,1,0.00,,,0.00,WUHU216HW,2013-03-22 05:30:00,
2013-03-22 01:35:00,23.6,-25.1,29.56,North,0,0.0,0.0,1,0.00,,,0.00,WUHU216HW,2013-03-22 05:35:00,
2013-03-22 01:40:00,23.6,-25.1,29.56,North,0,0.0,0.0,1,0.00,,,0.00,WUHU216HW,2013-03-22 05:40:00,
2013-03-22 01:45:00,23.8,-25.0,29.56,North,0,0.0,0.0,1,0.00,,,0.00,WUHU216HW,2013-03-22 05:45:00,
2013-03-22 01:50:00,23.9,-24.8,29.56,North,0,0.0,0.0,1,0.00,,,0.00,WUHU216HW,2013-03-22 05:50:00,
2013-03-22 01:55:00,24.1,-24.6,29.56,North,0,0.0,0.0,1,0.00,,,0.00,WUHU216HW,2013-03-22 05:55:00,
2013-03-22 02:00:00,24.1,-24.6,29.57,North,0,0.0,0.0,1,0.00,,,0.00,WUHU216HW,2013-03-22 06:00:00,
2013-03-22 02:05:00,24.1,-24.6,29.57,North,0,0.0,0.0,1,0.00,,,0.00,WUHU216HW,2013-03-22 06:05:00,
2013-03-22 02:10:00,24.1,-24.6,29.57,North,0,0.0,0.0,1,0.00,,,0.00,WUHU216HW,2013-03-22 06:10:00,
2013-03-22 02:15:00,24.1,-24.6,29.57,North,0,0.0,0.0,1,0.00,,,0.00,WUHU216HW,2013-03-22 06:15:00,
2013-03-22 02:20:00,24.3,-24.6,29.56,North,0,0.0,0.0,1,0.00,,,0.00,WUHU216HW,2013-03-22 06:20:00,
2013-03-22 02:25:00,24.5,-24.4,29.57,North,0,0.0,0.0,1,0.00,,,0.00,WUHU216HW,2013-03-22 06:25:00,
2013-03-22 02:30:00,24.8,-24.1,29.56,North,0,0.0,0.0,1,0.00,,,0.00,WUHU216HW,2013-03-22 06:30:00,
2013-03-22 02:35:00,24.8,-24.1,29.57,North,0,0.0,0.0,1,0.00,,,0.00,WUHU216HW,2013-03-22 06:35:00,
2013-03-22 02:39:00,25.2,-23.8,29.57,North,0,0.0,0.0,1,0.00,,,0.00,WUHU216HW,2013-03-22 06:39:00,
2013-03-22 02:44:00,25.4,-23.7,29.57,West,270,2.0,4.0,1,0.00,,,0.00,WUHU216HW,2013-03-22 06:44:00,
2013-03-22 02:49:00,25.6,-23.6,29.56,WNW,293,2.9,4.0,1,0.00,,,0.00,WUHU216HW,2013-03-22 06:49:00,
2013-03-22 02:54:00,25.7,-23.4,29.56,WNW,293,1.3,4.7,1,0.00,,,0.00,WUHU216HW,2013-03-22 06:54:00,
2013-03-22 02:59:00,25.9,-23.2,29.57,West,270,3.4,4.7,1,0.00,,,0.00,WUHU216HW,2013-03-22 06:59:00,
2013-03-22 03:04:00,26.3,-22.9,29.57,WNW,293,3.8,4.3,7,0.00,,,0.00,WUHU216HW,2013-03-22 07:04:00,
2013-03-22 03:09:00,26.5,-20.1,29.57,WNW,293,4.0,4.3,12,0.00,,,0.00,WUHU216HW,2013-03-22 07:09:00,
2013-03-22 03:14:00,26.6,-11.7,29.57,NW,315,8.7,8.7,18,0.00,,,0.00,WUHU216HW,2013-03-22 07:14:00,
2013-03-22 03:19:00,26.5,1.6,29.57,West,270,3.6,8.7,34,0.00,,,0.00,WUHU216HW,2013-03-22 07:19:00,
2013-03-22 03:24:00,27.0,-2.1,29.57,WNW,293,1.8,8.7,28,0.00,,,0.00,WUHU216HW,2013-03-22 07:24:00,
2013-03-22 03:29:00,26.8,0.1,29.57,West,270,4.3,4.5,31,0.00,,,0.00,WUHU216HW,2013-03-22 07:29:00,
2013-03-22 03:34:00,26.8,2.0,29.57,WNW,293,3.4,4.5,34,0.00,,,0.00,WUHU216HW,2013-03-22 07:34:00,
2013-03-22 03:39:00,26.8,5.8,29.57,North,0,0.0,4.3,40,0.00,,,0.00,WUHU216HW,2013-03-22 07:39:00,
2013-03-22 03:44:00,27.0,4.7,29.57,WNW,293,4.0,9.2,38,0.00,,,0.00,WUHU216HW,2013-03-22 07:44:00,
2013-03-22 03:49:00,27.0,6.4,29.57,WNW,293,5.4,9.2,41,0.00,,,0.00,WUHU216HW,2013-03-22 07:49:00,
2013-03-22 03:54:00,27.2,6.0,29.56,WNW,293,5.4,5.4,40,0.00,,,0.00,WUHU216HW,2013-03-22 07:54:00,
2013-03-22 03:59:00,27.2,7.6,29.56,NW,315,3.6,8.5,43,0.00,,,0.00,WUHU216HW,2013-03-22 07:59:00,
2013-03-22 04:04:00,27.4,9.2,29.56,NNW,338,7.6,8.5,46,0.00,,,0.00,WUHU216HW,2013-03-22 08:04:00,
2013-03-22 04:09:00,27.4,9.2,29.57,West,270,2.7,7.6,46,0.00,,,0.00,WUHU216HW,2013-03-22 08:09:00,
2013-03-22 04:14:00,27.4,8.2,29.57,North,0,1.1,7.6,44,0.00,,,0.00,WUHU216HW,2013-03-22 08:14:00,
2013-03-22 04:19:00,27.4,9.2,29.56,NW,315,4.7,5.8,46,0.00,,,0.00,WUHU216HW,2013-03-22 08:19:00,
2013-03-22 04:24:00,27.4,8.7,29.56,WNW,293,2.5,5.8,45,0.00,,,0.00,WUHU216HW,2013-03-22 08:24:00,
2013-03-22 04:29:00,27.4,9.2,29.57,North,0,0.0,4.7,46,0.00,,,0.00,WUHU216HW,2013-03-22 08:29:00,
2013-03-22 04:34:00,27.4,8.7,29.57,NNW,338,3.1,3.6,45,0.00,,,0.00,WUHU216HW,2013-03-22 08:34:00,
2013-03-22 04:39:00,27.4,9.2,29.57,NW,315,6.3,6.3,46,0.00,,,0.00,WUHU216HW,2013-03-22 08:39:00,
2013-03-22 04:44:00,27.4,8.7,29.57,West,270,2.5,6.3,45,0.00,,,0.00,WUHU216HW,2013-03-22 08:44:00,
2013-03-22 04:49:00,27.4,8.7,29.57,NW,315,3.4,6.3,45,0.00,,,0.00,WUHU216HW,2013-03-22 08:49:00,
2013-03-22 04:54:00,27.4,8.7,29.57,NW,315,2.7,3.4,45,0.00,,,0.00,WUHU216HW,2013-03-22 08:54:00,
2013-03-22 04:59:00,27.2,9.0,29.57,West,270,4.3,4.3,46,0.00,,,0.00,WUHU216HW,2013-03-22 08:59:00,
2013-03-22 05:04:00,27.2,9.0,29.57,NW,315,6.3,6.3,46,0.00,,,0.00,WUHU216HW,2013-03-22 09:04:00,
2013-03-22 05:09:00,27.2,9.0,29.57,West,270,2.9,6.3,46,0.00,,,0.00,WUHU216HW,2013-03-22 09:09:00,
2013-03-22 05:14:00,27.2,9.0,29.57,West,270,2.7,6.3,46,0.00,,,0.00,WUHU216HW,2013-03-22 09:14:00,
2013-03-22 05:19:00,27.2,9.0,29.57,WNW,293,0.7,4.0,46,0.00,,,0.00,WUHU216HW,2013-03-22 09:19:00,
2013-03-22 05:24:00,27.2,9.0,29.57,WNW,293,1.8,3.6,46,0.00,,,0.00,WUHU216HW,2013-03-22 09:24:00,
2013-03-22 05:29:00,27.0,8.8,29.57,WNW,293,3.8,3.8,46,0.00,,,0.00,WUHU216HW,2013-03-22 09:29:00,
2013-03-22 05:34:00,27.0,8.4,29.57,NNW,338,2.2,3.8,45,0.00,,,0.00,WUHU216HW,2013-03-22 09:34:00,
2013-03-22 05:39:00,27.0,8.4,29.57,WNW,293,0.2,3.8,45,0.00,,,0.00,WUHU216HW,2013-03-22 09:39:00,
2013-03-22 05:44:00,27.0,8.4,29.57,WSW,248,1.1,2.2,45,0.00,,,0.00,WUHU216HW,2013-03-22 09:44:00,
2013-03-22 05:49:00,27.0,7.8,29.57,WSW,248,1.3,2.2,44,0.00,,,0.00,WUHU216HW,2013-03-22 09:49:00,
2013-03-22 05:54:00,27.0,8.4,29.58,South,180,3.8,3.8,45,0.00,,,0.00,WUHU216HW,2013-03-22 09:54:00,
2013-03-22 05:59:00,27.0,8.4,29.57,West,270,3.1,3.8,45,0.00,,,0.00,WUHU216HW,2013-03-22 09:59:00,
2013-03-22 06:04:00,27.0,8.4,29.58,West,270,2.2,4.0,45,0.00,,,0.00,WUHU216HW,2013-03-22 10:04:00,
2013-03-22 06:09:00,27.0,8.4,29.58,WSW,248,1.3,4.3,45,0.00,,,0.00,WUHU216HW,2013-03-22 10:09:00,
2013-03-22 06:14:00,27.0,8.4,29.58,WSW,248,2.5,4.3,45,0.00,,,0.00,WUHU216HW,2013-03-22 10:14:00,
2013-03-22 06:19:00,27.0,8.8,29.58,WSW,248,0.9,4.3,46,0.00,,,0.00,WUHU216HW,2013-03-22 10:19:00,
2013-03-22 06:24:00,27.0,8.8,29.58,WNW,293,4.5,4.5,46,0.00,,,0.00,WUHU216HW,2013-03-22 10:24:00,
2013-03-22 06:29:00,27.0,9.4,29.58,WSW,248,1.6,4.5,47,0.00,,,0.00,WUHU216HW,2013-03-22 10:29:00,
2013-03-22 06:34:00,27.0,8.8,29.59,North,0,0.0,4.5,46,0.00,,,0.00,WUHU216HW,2013-03-22 10:34:00,
2013-03-22 06:39:00,27.0,8.4,29.59,West,270,0.4,1.6,45,0.00,,,0.00,WUHU216HW,2013-03-22 10:39:00,
2013-03-22 06:44:00,26.8,8.6,29.59,West,270,0.0,0.4,46,0.00,,,0.00,WUHU216HW,2013-03-22 10:44:00,
2013-03-22 06:49:00,26.6,8.5,29.59,North,0,0.0,0.4,46,0.00,,,0.00,WUHU216HW,2013-03-22 10:49:00,
2013-03-22 06:54:00,26.5,8.8,29.59,WNW,293,0.0,0.0,47,0.00,,,0.00,WUHU216HW,2013-03-22 10:54:00,
2013-03-22 06:59:00,26.3,8.2,29.60,West,270,1.3,1.3,46,0.00,,,0.00,WUHU216HW,2013-03-22 10:59:00,
2013-03-22 07:04:00,26.3,8.2,29.59,WSW,248,0.4,1.3,46,0.00,,,0.00,WUHU216HW,2013-03-22 11:04:00,
2013-03-22 07:09:00,26.1,7.6,29.60,WNW,293,0.2,1.3,45,0.00,,,0.00,WUHU216HW,2013-03-22 11:09:00,
2013-03-22 07:14:00,25.9,7.4,29.60,WNW,293,0.4,0.9,45,0.00,,,0.00,WUHU216HW,2013-03-22 11:14:00,
2013-03-22 07:19:00,25.9,6.8,29.61,West,270,0.0,0.7,44,0.00,,,0.00,WUHU216HW,2013-03-22 11:19:00,
2013-03-22 07:24:00,25.9,6.4,29.61,WSW,248,1.3,2.2,43,0.00,,,0.00,WUHU216HW,2013-03-22 11:24:00,
2013-03-22 07:29:00,25.9,6.4,29.61,WNW,293,1.3,2.2,43,0.00,,,0.00,WUHU216HW,2013-03-22 11:29:00,
2013-03-22 07:34:00,26.1,6.6,29.61,West,270,0.9,1.3,43,0.00,,,0.00,WUHU216HW,2013-03-22 11:34:00,
2013-03-22 07:39:00,26.1,6.6,29.61,WNW,293,1.3,1.3,43,0.00,,,0.00,WUHU216HW,2013-03-22 11:39:00,
2013-03-22 07:44:00,26.3,6.8,29.61,NW,315,2.2,2.2,43,0.00,,,0.00,WUHU216HW,2013-03-22 11:44:00,
2013-03-22 07:49:00,26.5,6.8,29.61,NW,315,2.2,2.2,43,0.00,,,0.00,WUHU216HW,2013-03-22 11:49:00,
2013-03-22 07:54:00,27.0,6.8,29.61,NW,315,2.0,2.2,42,0.00,,,0.00,WUHU216HW,2013-03-22 11:54:00,
2013-03-22 07:59:00,27.2,7.0,29.62,WNW,293,1.1,2.0,42,0.00,,,0.00,WUHU216HW,2013-03-22 11:59:00,
2013-03-22 08:04:00,27.7,8.6,29.62,WNW,293,2.2,4.0,44,0.00,,,0.00,WUHU216HW,2013-03-22 12:04:00,
2013-03-22 08:09:00,27.9,9.2,29.61,West,270,4.7,4.7,45,0.00,,,0.00,WUHU216HW,2013-03-22 12:09:00,
2013-03-22 08:14:00,28.6,10.9,29.62,WNW,293,2.0,4.7,47,0.00,,,0.00,WUHU216HW,2013-03-22 12:14:00,
2013-03-22 08:19:00,29.3,11.5,29.62,WNW,293,5.8,5.8,47,0.00,,,0.00,WUHU216HW,2013-03-22 12:19:00,
2013-03-22 08:24:00,30.4,13.5,29.61,WNW,293,4.7,8.5,49,0.00,,,0.00,WUHU216HW,2013-03-22 12:24:00,
2013-03-22 08:29:00,30.6,13.7,29.62,NW,315,1.8,9.2,49,0.00,,,0.00,WUHU216HW,2013-03-22 12:29:00,
2013-03-22 08:34:00,31.3,14.9,29.62,NW,315,6.3,9.2,50,0.00,,,0.00,WUHU216HW,2013-03-22 12:34:00,
2013-03-22 08:39:00,31.7,15.1,29.62,NW,315,4.9,8.7,50,0.00,,,0.00,WUHU216HW,2013-03-22 12:39:00,
2013-03-22 08:44:00,32.2,16.5,29.62,North,0,3.1,6.7,52,0.00,,,0.00,WUHU216HW,2013-03-22 12:44:00,
2013-03-22 08:49:00,32.8,16.6,29.62,NW,315,5.1,5.1,51,0.00,,,0.00,WUHU216HW,2013-03-22 12:49:00,
2013-03-22 08:54:00,33.5,18.1,29.62,NW,315,5.1,5.1,53,0.00,,,0.00,WUHU216HW,2013-03-22 12:54:00,
2013-03-22 08:59:00,34.0,18.5,29.62,West,270,7.6,8.7,53,0.00,,,0.00,WUHU216HW,2013-03-22 12:59:00,
2013-03-22 09:04:00,34.2,18.4,29.62,NW,315,6.7,8.7,52,0.00,,,0.00,WUHU216HW,2013-03-22 13:04:00,
2013-03-22 09:09:00,34.2,18.4,29.62,West,270,6.5,8.1,52,0.00,,,0.00,WUHU216HW,2013-03-22 13:09:00,
2013-03-22 09:14:00,34.2,18.4,29.62,NW,315,5.4,8.1,52,0.00,,,0.00,WUHU216HW,2013-03-22 13:14:00,
2013-03-22 09:19:00,34.2,18.4,29.62,WNW,293,7.6,7.6,52,0.00,,,0.00,WUHU216HW,2013-03-22 13:19:00,
2013-03-22 09:24:00,34.2,18.4,29.62,NNW,338,1.6,7.6,52,0.00,,,0.00,WUHU216HW,2013-03-22 13:24:00,
2013-03-22 09:29:00,34.6,19.1,29.62,WNW,293,5.4,7.6,53,0.00,,,0.00,WUHU216HW,2013-03-22 13:29:00,
2013-03-22 09:34:00,35.6,19.8,29.62,NW,315,2.7,5.4,52,0.00,,,0.00,WUHU216HW,2013-03-22 13:34:00,
2013-03-22 09:39:00,36.7,19.9,29.62,North,0,0.0,5.4,50,0.00,,,0.00,WUHU216HW,2013-03-22 13:39:00,
2013-03-22 09:44:00,36.4,20.0,29.63,NNW,338,6.3,9.2,51,0.00,,,0.00,WUHU216HW,2013-03-22 13:44:00,
2013-03-22 09:49:00,35.3,19.0,29.63,West,270,6.9,9.2,51,0.00,,,0.00,WUHU216HW,2013-03-22 13:49:00,
2013-03-22 09:54:00,35.1,18.8,29.63,WNW,293,5.6,6.9,51,0.00,,,0.00,WUHU216HW,2013-03-22 13:54:00,
2013-03-22 09:59:00,35.3,19.0,29.63,North,0,2.9,6.9,51,0.00,,,0.00,WUHU216HW,2013-03-22 13:59:00,
2013-03-22 10:04:00,35.5,19.2,29.63,WNW,293,3.1,5.6,51,0.00,,,0.00,WUHU216HW,2013-03-22 14:04:00,
2013-03-22 10:09:00,35.6,19.8,29.63,NW,315,2.5,3.1,52,0.00,,,0.00,WUHU216HW,2013-03-22 14:09:00,
2013-03-22 10:14:00,36.2,19.8,29.63,North,0,2.5,3.1,51,0.00,,,0.00,WUHU216HW,2013-03-22 14:14:00,
2013-03-22 10:19:00,36.5,20.2,29.63,North,0,0.0,2.5,51,0.00,,,0.00,WUHU216HW,2013-03-22 14:19:00,
2013-03-22 10:24:00,37.4,21.0,29.63,SW,225,2.5,3.4,51,0.00,,,0.00,WUHU216HW,2013-03-22 14:24:00,
2013-03-22 10:29:00,38.2,21.6,29.63,SW,225,2.5,3.4,51,0.00,,,0.00,WUHU216HW,2013-03-22 14:29:00,
2013-03-22 10:34:00,38.9,22.2,29.63,WSW,248,1.1,2.5,51,0.00,,,0.00,WUHU216HW,2013-03-22 14:34:00,
2013-03-22 10:39:00,39.4,22.3,29.62,ENE,68,1.3,2.5,50,0.00,,,0.00,WUHU216HW,2013-03-22 14:39:00,
2013-03-22 10:44:00,40.0,22.2,29.62,North,0,1.3,4.3,49,0.00,,,0.00,WUHU216HW,2013-03-22 14:44:00,
2013-03-22 10:49:00,39.6,22.0,29.62,NNW,338,3.8,4.3,49,0.00,,,0.00,WUHU216HW,2013-03-22 14:49:00,
2013-03-22 10:54:00,38.9,20.3,29.62,NW,315,1.1,6.0,47,0.00,,,0.00,WUHU216HW,2013-03-22 14:54:00,
2013-03-22 10:59:00,38.5,19.9,29.62,North,0,0.0,6.0,47,0.00,,,0.00,WUHU216HW,2013-03-22 14:59:00,
2013-03-22 11:04:00,38.7,19.5,29.62,WNW,293,5.4,6.9,46,0.00,,,0.00,WUHU216HW,2013-03-22 15:04:00,
2013-03-22 11:09:00,39.4,19.7,29.62,WNW,293,4.7,6.9,45,0.00,,,0.00,WUHU216HW,2013-03-22 15:09:00,
2013-03-22 11:14:00,40.0,21.3,29.62,WNW,293,4.7,5.4,47,0.00,,,0.00,WUHU216HW,2013-03-22 15:14:00,
2013-03-22 11:19:00,40.3,21.5,29.62,North,0,0.0,4.7,47,0.00,,,0.00,WUHU216HW,2013-03-22 15:19:00,
2013-03-22 11:24:00,40.3,21.5,29.62,West,270,6.3,6.3,47,0.00,,,0.00,WUHU216HW,2013-03-22 15:24:00,
2013-03-22 11:29:00,39.8,20.0,29.62,NW,315,9.2,9.2,45,0.00,,,0.00,WUHU216HW,2013-03-22 15:29:00,
2013-03-22 11:34:00,39.2,19.5,29.62,WNW,293,3.6,9.2,45,0.00,,,0.00,WUHU216HW,2013-03-22 15:34:00,
2013-03-22 11:39:00,39.1,19.4,29.62,WSW,248,2.5,9.2,45,0.00,,,0.00,WUHU216HW,2013-03-22 15:39:00,
2013-03-22 11:44:00,40.0,19.6,29.61,WNW,293,4.0,5.6,44,0.00,,,0.00,WUHU216HW,2013-03-22 15:44:00,
2013-03-22 11:49:00,40.7,20.4,29.61,NW,315,2.2,5.8,44,0.00,,,0.00,WUHU216HW,2013-03-22 15:49:00,
2013-03-22 11:54:00,41.0,20.1,29.61,West,270,4.0,9.8,43,0.00,,,0.00,WUHU216HW,2013-03-22 15:54:00,
2013-03-22 11:59:00,40.3,20.0,29.61,WNW,293,4.7,9.8,44,0.00,,,0.00,WUHU216HW,2013-03-22 15:59:00,
2013-03-22 12:04:00,40.3,20.0,29.61,SW,225,0.9,4.9,44,0.00,,,0.00,WUHU216HW,2013-03-22 16:04:00,
2013-03-22 12:09:00,40.9,20.4,29.61,WSW,248,7.4,7.4,44,0.00,,,0.00,WUHU216HW,2013-03-22 16:09:00,
2013-03-22 12:14:00,40.9,20.0,29.61,NNW,338,7.8,7.8,43,0.00,,,0.00,WUHU216HW,2013-03-22 16:14:00,
2013-03-22 12:19:00,40.7,19.8,29.61,WSW,248,8.1,8.1,43,0.00,,,0.00,WUHU216HW,2013-03-22 16:19:00,
2013-03-22 12:24:00,40.7,19.3,29.61,WNW,293,0.4,8.1,42,0.00,,,0.00,WUHU216HW,2013-03-22 16:24:00,
2013-03-22 12:29:00,41.4,20.4,29.60,WSW,248,4.0,8.1,43,0.00,,,0.00,WUHU216HW,2013-03-22 16:29:00,
2013-03-22 12:34:00,42.3,20.7,29.60,WNW,293,4.0,7.2,42,0.00,,,0.00,WUHU216HW,2013-03-22 16:34:00,
2013-03-22 12:39:00,42.3,19.7,29.61,West,270,6.3,11.2,40,0.00,,,0.00,WUHU216HW,2013-03-22 16:39:00,
2013-03-22 12:44:00,41.9,18.7,29.61,WNW,293,4.0,11.2,39,0.00,,,0.00,WUHU216HW,2013-03-22 16:44:00,
2013-03-22 12:49:00,41.6,17.1,29.61,NNW,338,3.4,7.6,37,0.00,,,0.00,WUHU216HW,2013-03-22 16:49:00,
2013-03-22 12:54:00,41.2,18.1,29.61,WNW,293,1.8,7.6,39,0.00,,,0.00,WUHU216HW,2013-03-22 16:54:00,
2013-03-22 12:59:00,41.0,19.1,29.60,West,270,2.5,5.4,41,0.00,,,0.00,WUHU216HW,2013-03-22 16:59:00,
2013-03-22 13:04:00,42.1,20.6,29.60,WNW,293,5.1,5.4,42,0.00,,,0.00,WUHU216HW,2013-03-22 17:04:00,
2013-03-22 13:09:00,43.2,21.1,29.60,NNE,23,1.8,7.8,41,0.00,,,0.00,WUHU216HW,2013-03-22 17:09:00,
2013-03-22 13:14:00,43.0,20.4,29.60,WSW,248,5.6,7.8,40,0.00,,,0.00,WUHU216HW,2013-03-22 17:14:00,
2013-03-22 13:19:00,42.7,20.0,29.60,NNW,338,3.4,5.6,40,0.00,,,0.00,WUHU216HW,2013-03-22 17:19:00,
2013-03-22 13:24:00,42.1,16.9,29.60,NW,315,5.1,9.6,36,0.00,,,0.00,WUHU216HW,2013-03-22 17:24:00,
2013-03-22 13:29:00,41.0,16.6,29.60,North,0,3.8,9.6,37,0.00,,,0.00,WUHU216HW,2013-03-22 17:29:00,
2013-03-22 13:34:00,40.9,18.4,29.60,West,270,3.4,5.1,40,0.00,,,0.00,WUHU216HW,2013-03-22 17:34:00,
2013-03-22 13:39:00,40.9,18.4,29.60,NNW,338,6.9,8.3,40,0.00,,,0.00,WUHU216HW,2013-03-22 17:39:00,
2013-03-22 13:44:00,40.7,17.6,29.60,NW,315,8.1,8.3,39,0.00,,,0.00,WUHU216HW,2013-03-22 17:44:00,
2013-03-22 13:49:00,40.3,17.9,29.59,NNW,338,3.6,10.3,40,0.00,,,0.00,WUHU216HW,2013-03-22 17:49:00,
2013-03-22 13:54:00,40.9,18.9,29.59,WSW,248,8.1,10.3,41,0.00,,,0.00,WUHU216HW,2013-03-22 17:54:00,
2013-03-22 13:59:00,41.0,18.5,29.59,NW,315,8.5,8.7,40,0.00,,,0.00,WUHU216HW,2013-03-22 17:59:00,
2013-03-22 14:04:00,41.6,17.7,29.59,SE,135,1.8,8.7,38,0.00,,,0.00,WUHU216HW,2013-03-22 18:04:00,
2013-03-22 14:09:00,41.8,19.2,29.59,SW,225,4.3,8.5,40,0.00,,,0.00,WUHU216HW,2013-03-22 18:09:00,
2013-03-22 14:14:00,42.1,18.2,29.59,WSW,248,5.1,10.5,38,0.00,,,0.00,WUHU216HW,2013-03-22 18:14:00,
2013-03-22 14:19:00,42.5,18.6,29.59,NW,315,5.1,10.5,38,0.00,,,0.00,WUHU216HW,2013-03-22 18:19:00,
2013-03-22 14:24:00,42.7,18.6,29.59,West,270,2.9,7.8,38,0.00,,,0.00,WUHU216HW,2013-03-22 18:24:00,
2013-03-22 14:29:00,43.2,19.2,29.59,WSW,248,6.9,8.5,38,0.00,,,0.00,WUHU216HW,2013-03-22 18:29:00,
2013-03-22 14:34:00,42.5,18.6,29.59,West,270,4.7,13.2,38,0.00,,,0.00,WUHU216HW,2013-03-22 18:34:00,
2013-03-22 14:39:00,41.6,18.4,29.58,WNW,293,3.1,13.2,39,0.00,,,0.00,WUHU216HW,2013-03-22 18:39:00,
2013-03-22 14:44:00,41.2,18.7,29.59,WNW,293,2.5,8.3,40,0.00,,,0.00,WUHU216HW,2013-03-22 18:44:00,
2013-03-22 14:49:00,41.6,17.7,29.58,West,270,6.0,9.4,38,0.00,,,0.00,WUHU216HW,2013-03-22 18:49:00,
2013-03-22 14:54:00,41.6,18.4,29.59,NW,315,7.8,9.4,39,0.00,,,0.00,WUHU216HW,2013-03-22 18:54:00,
2013-03-22 14:59:00,41.0,17.3,29.59,WNW,293,6.7,9.4,38,0.00,,,0.00,WUHU216HW,2013-03-22 18:59:00,
2013-03-22 15:04:00,40.7,18.2,29.59,NW,315,7.2,9.4,40,0.00,,,0.00,WUHU216HW,2013-03-22 19:04:00,
2013-03-22 15:09:00,40.1,17.7,29.59,NW,315,7.6,10.5,40,0.00,,,0.00,WUHU216HW,2013-03-22 19:09:00,
2013-03-22 15:14:00,40.0,18.1,29.59,WNW,293,4.0,10.5,41,0.00,,,0.00,WUHU216HW,2013-03-22 19:14:00,
2013-03-22 15:19:00,40.1,18.8,29.59,WNW,293,7.8,9.4,42,0.00,,,0.00,WUHU216HW,2013-03-22 19:19:00,
2013-03-22 15:24:00,40.1,18.3,29.58,NNW,338,3.4,9.8,41,0.00,,,0.00,WUHU216HW,2013-03-22 19:24:00,
2013-03-22 15:29:00,40.5,18.1,29.58,West,270,2.5,9.8,40,0.00,,,0.00,WUHU216HW,2013-03-22 19:29:00,
2013-03-22 15:34:00,41.4,18.2,29.59,WNW,293,4.3,7.4,39,0.00,,,0.00,WUHU216HW,2013-03-22 19:34:00,
2013-03-22 15:39:00,41.4,18.9,29.58,NW,315,8.1,8.1,40,0.00,,,0.00,WUHU216HW,2013-03-22 19:39:00,
2013-03-22 15:44:00,41.2,17.4,29.58,West,270,6.3,11.6,38,0.00,,,0.00,WUHU216HW,2013-03-22 19:44:00,
2013-03-22 15:49:00,41.4,18.2,29.58,SW,225,6.3,19.2,39,0.00,,,0.00,WUHU216HW,2013-03-22 19:49:00,
2013-03-22 15:54:00,41.9,18.0,29.58,West,270,4.0,19.2,38,0.00,,,0.00,WUHU216HW,2013-03-22 19:54:00,
2013-03-22 15:59:00,42.1,18.2,29.58,NW,315,5.4,12.8,38,0.00,,,0.00,WUHU216HW,2013-03-22 19:59:00,
2013-03-22 16:04:00,41.8,17.9,29.58,WNW,293,1.8,11.6,38,0.00,,,0.00,WUHU216HW,2013-03-22 20:04:00,
2013-03-22 16:09:00,41.4,18.2,29.58,WNW,293,4.7,14.3,39,0.00,,,0.00,WUHU216HW,2013-03-22 20:09:00,
2013-03-22 16:14:00,41.6,17.7,29.58,SSW,203,7.6,14.3,38,0.00,,,0.00,WUHU216HW,2013-03-22 20:14:00,
2013-03-22 16:19:00,41.8,17.9,29.58,West,270,13.6,13.6,38,0.00,,,0.00,WUHU216HW,2013-03-22 20:19:00,
2013-03-22 16:23:00,41.0,17.9,29.58,WNW,293,6.9,13.6,39,0.00,,,0.00,WUHU216HW,2013-03-22 20:23:00,
2013-03-22 16:28:00,40.7,17.6,29.59,West,270,4.5,13.6,39,0.00,,,0.00,WUHU216HW,2013-03-22 20:28:00,
2013-03-22 16:33:00,40.3,17.9,29.59,WNW,293,4.3,8.7,40,0.00,,,0.00,WUHU216HW,2013-03-22 20:33:00,
2013-03-22 16:38:00,40.5,18.1,29.59,NNW,338,5.4,9.2,40,0.00,,,0.00,WUHU216HW,2013-03-22 20:38:00,
2013-03-22 16:43:00,40.3,17.9,29.59,NW,315,11.4,11.4,40,0.00,,,0.00,WUHU216HW,2013-03-22 20:43:00,
2013-03-22 16:48:00,40.0,18.1,29.59,NW,315,4.0,11.4,41,0.00,,,0.00,WUHU216HW,2013-03-22 20:48:00,
2013-03-22 16:53:00,39.4,17.7,29.59,NW,315,5.6,11.4,41,0.00,,,0.00,WUHU216HW,2013-03-22 20:53:00,
2013-03-22 16:58:00,39.1,17.8,29.59,West,270,8.5,8.5,42,0.00,,,0.00,WUHU216HW,2013-03-22 20:58:00,
2013-03-22 17:03:00,39.1,17.8,29.59,WSW,248,4.0,9.2,42,0.00,,,0.00,WUHU216HW,2013-03-22 21:03:00,
2013-03-22 17:08:00,38.9,17.6,29.59,West,270,6.3,9.6,42,0.00,,,0.00,WUHU216HW,2013-03-22 21:08:00,
2013-03-22 17:13:00,38.9,18.2,29.59,WSW,248,12.8,12.8,43,0.00,,,0.00,WUHU216HW,2013-03-22 21:13:00,
2013-03-22 17:18:00,38.7,18.0,29.59,WSW,248,2.7,15.9,43,0.00,,,0.00,WUHU216HW,2013-03-22 21:18:00,
2013-03-22 17:23:00,38.7,18.6,29.59,NNW,338,5.6,15.9,44,0.00,,,0.00,WUHU216HW,2013-03-22 21:23:00,
2013-03-22 17:28:00,38.7,18.6,29.60,SW,225,5.4,7.6,44,0.00,,,0.00,WUHU216HW,2013-03-22 21:28:00,
2013-03-22 17:33:00,38.5,18.4,29.60,WNW,293,4.7,7.6,44,0.00,,,0.00,WUHU216HW,2013-03-22 21:33:00,
2013-03-22 17:38:00,38.3,18.7,29.60,WSW,248,6.5,7.8,45,0.00,,,0.00,WUHU216HW,2013-03-22 21:38:00,
2013-03-22 17:43:00,38.3,18.7,29.60,West,270,2.5,7.8,45,0.00,,,0.00,WUHU216HW,2013-03-22 21:43:00,
2013-03-22 17:48:00,38.3,18.7,29.60,NNW,338,4.0,7.4,45,0.00,,,0.00,WUHU216HW,2013-03-22 21:48:00,
2013-03-22 17:53:00,38.2,18.5,29.60,WSW,248,3.1,7.4,45,0.00,,,0.00,WUHU216HW,2013-03-22 21:53:00,
2013-03-22 17:58:00,38.0,18.4,29.60,WNW,293,6.5,6.5,45,0.00,,,0.00,WUHU216HW,2013-03-22 21:58:00,
2013-03-22 18:03:00,37.8,18.3,29.60,NW,315,1.8,6.5,45,0.00,,,0.00,WUHU216HW,2013-03-22 22:03:00,
2013-03-22 18:08:00,37.4,17.9,29.61,WNW,293,3.6,7.6,45,0.00,,,0.00,WUHU216HW,2013-03-22 22:08:00,
2013-03-22 18:13:00,37.4,17.9,29.61,WNW,293,9.2,9.2,45,0.00,,,0.00,WUHU216HW,2013-03-22 22:13:00,
2013-03-22 18:18:00,37.3,17.7,29.61,WSW,248,4.7,9.2,45,0.00,,,0.00,WUHU216HW,2013-03-22 22:18:00,
2013-03-22 18:23:00,37.1,18.1,29.61,NW,315,5.4,9.2,46,0.00,,,0.00,WUHU216HW,2013-03-22 22:23:00,
2013-03-22 18:28:00,36.7,17.8,29.61,West,270,3.6,5.4,46,0.00,,,0.00,WUHU216HW,2013-03-22 22:28:00,
2013-03-22 18:33:00,36.5,18.2,29.62,West,270,0.4,5.4,47,0.00,,,0.00,WUHU216HW,2013-03-22 22:33:00,
2013-03-22 18:38:00,36.2,17.8,29.62,SW,225,3.4,4.7,47,0.00,,,0.00,WUHU216HW,2013-03-22 22:38:00,
2013-03-22 18:43:00,35.8,18.0,29.62,WNW,293,3.1,4.7,48,0.00,,,0.00,WUHU216HW,2013-03-22 22:43:00,
2013-03-22 18:48:00,35.5,18.2,29.62,West,270,4.3,4.3,49,0.00,,,0.00,WUHU216HW,2013-03-22 22:48:00,
2013-03-22 18:53:00,34.9,17.6,29.62,WNW,293,1.1,4.3,49,0.00,,,0.00,WUHU216HW,2013-03-22 22:53:00,
2013-03-22 18:58:00,34.6,18.3,29.62,WNW,293,1.3,4.7,51,0.00,,,0.00,WUHU216HW,2013-03-22 22:58:00,
2013-03-22 19:03:00,34.4,18.1,29.63,WSW,248,2.2,4.9,51,0.00,,,0.00,WUHU216HW,2013-03-22 23:03:00,
2013-03-22 19:08:00,34.2,18.4,29.63,SW,225,3.4,4.9,52,0.00,,,0.00,WUHU216HW,2013-03-22 23:08:00,
2013-03-22 19:13:00,34.0,18.2,29.63,West,270,0.9,4.7,52,0.00,,,0.00,WUHU216HW,2013-03-22 23:13:00,
2013-03-22 19:18:00,33.7,17.8,29.63,WSW,248,3.8,3.8,52,0.00,,,0.00,WUHU216HW,2013-03-22 23:18:00,
2013-03-22 19:23:00,33.5,18.1,29.63,WNW,293,3.4,4.0,53,0.00,,,0.00,WUHU216HW,2013-03-22 23:23:00,
2013-03-22 19:28:00,33.1,17.7,29.63,SSW,203,2.5,4.0,53,0.00,,,0.00,WUHU216HW,2013-03-22 23:28:00,
2013-03-22 19:33:00,32.9,17.6,29.63,SSW,203,0.4,3.8,53,0.00,,,0.00,WUHU216HW,2013-03-22 23:33:00,
2013-03-22 19:38:00,32.8,17.5,29.64,West,270,2.5,3.6,53,0.00,,,0.00,WUHU216HW,2013-03-22 23:38:00,
2013-03-22 19:43:00,32.4,17.6,29.64,SW,225,4.7,4.7,54,0.00,,,0.00,WUHU216HW,2013-03-22 23:43:00,
2013-03-22 19:48:00,32.2,17.4,29.64,WSW,248,4.0,4.7,54,0.00,,,0.00,WUHU216HW,2013-03-22 23:48:00,
2013-03-22 19:53:00,32.2,17.4,29.64,WSW,248,0.9,4.7,54,0.00,,,0.00,WUHU216HW,2013-03-22 23:53:00,
2013-03-22 19:58:00,32.4,17.6,29.64,WNW,293,6.3,6.3,54,0.00,,,0.00,WUHU216HW,2013-03-22 23:58:00,
2013-03-22 20:03:00,32.6,17.3,29.64,WNW,293,3.8,6.3,53,0.00,,,0.00,WUHU216HW,2013-03-23 00:03:00,
2013-03-22 20:08:00,32.8,17.5,29.65,West,270,2.5,6.3,53,0.00,,,0.00,WUHU216HW,2013-03-23 00:08:00,
2013-03-22 20:13:00,32.6,16.8,29.65,West,270,3.4,5.6,52,0.00,,,0.00,WUHU216HW,2013-03-23 00:13:00,
2013-03-22 20:18:00,32.6,17.3,29.65,WSW,248,7.4,7.4,53,0.00,,,0.00,WUHU216HW,2013-03-23 00:18:00,
2013-03-22 20:23:00,32.4,17.1,29.66,SW,225,3.4,7.4,53,0.00,,,0.00,WUHU216HW,2013-03-23 00:23:00,
2013-03-22 20:28:00,32.4,16.7,29.66,WSW,248,1.6,7.4,52,0.00,,,0.00,WUHU216HW,2013-03-23 00:28:00,
2013-03-22 20:33:00,32.0,16.7,29.66,WNW,293,2.2,4.7,53,0.00,,,0.00,WUHU216HW,2013-03-23 00:33:00,
2013-03-22 20:38:00,31.7,16.0,29.66,WSW,248,2.0,4.0,52,0.00,,,0.00,WUHU216HW,2013-03-23 00:38:00,
2013-03-22 20:43:00,31.0,15.4,29.66,WNW,293,2.2,6.3,52,0.00,,,0.00,WUHU216HW,2013-03-23 00:43:00,
2013-03-22 20:48:00,30.8,14.8,29.66,WNW,293,1.1,6.3,51,0.00,,,0.00,WUHU216HW,2013-03-23 00:48:00,
2013-03-22 20:53:00,30.6,13.7,29.66,WNW,293,1.3,4.0,49,0.00,,,0.00,WUHU216HW,2013-03-23 00:53:00,
2013-03-22 20:58:00,30.6,11.7,29.66,West,270,7.6,7.6,45,0.00,,,0.00,WUHU216HW,2013-03-23 00:58:00,
2013-03-22 21:03:00,30.6,12.2,29.66,West,270,2.2,7.6,46,0.00,,,0.00,WUHU216HW,2013-03-23 01:03:00,
2013-03-22 21:08:00,30.6,12.2,29.66,NNW,338,4.0,7.6,46,0.00,,,0.00,WUHU216HW,2013-03-23 01:08:00,
2013-03-22 21:13:00,30.6,12.2,29.66,SW,225,2.0,5.1,46,0.00,,,0.00,WUHU216HW,2013-03-23 01:13:00,
2013-03-22 21:18:00,30.4,12.0,29.66,WSW,248,4.0,4.7,46,0.00,,,0.00,WUHU216HW,2013-03-23 01:18:00,
2013-03-22 21:23:00,30.1,11.7,29.66,WNW,293,4.5,4.5,46,0.00,,,0.00,WUHU216HW,2013-03-23 01:23:00,
2013-03-22 21:28:00,29.9,10.5,29.67,West,270,3.8,6.5,44,0.00,,,0.00,WUHU216HW,2013-03-23 01:28:00,
2013-03-22 21:33:00,30.1,6.8,29.67,West,270,4.9,6.9,37,0.00,,,0.00,WUHU216HW,2013-03-23 01:33:00,
2013-03-22 21:38:00,30.1,9.2,29.67,WSW,248,1.8,6.9,41,0.00,,,0.00,WUHU216HW,2013-03-23 01:38:00,
2013-03-22 21:43:00,30.2,8.2,29.67,NW,315,1.6,6.0,39,0.00,,,0.00,WUHU216HW,2013-03-23 01:43:00,
2013-03-22 21:48:00,30.1,9.6,29.67,WNW,293,1.8,6.0,42,0.00,,,0.00,WUHU216HW,2013-03-23 01:48:00,
2013-03-22 21:53:00,30.2,9.4,29.67,South,180,3.4,5.4,41,0.00,,,0.00,WUHU216HW,2013-03-23 01:53:00,
2013-03-22 21:58:00,30.2,8.8,29.67,West,270,1.8,5.4,40,0.00,,,0.00,WUHU216HW,2013-03-23 01:58:00,
2013-03-22 22:03:00,30.2,8.2,29.67,WNW,293,2.9,7.6,39,0.00,,,0.00,WUHU216HW,2013-03-23 02:03:00,
2013-03-22 22:08:00,30.1,8.0,29.67,SSE,158,0.2,8.7,39,0.00,,,0.00,WUHU216HW,2013-03-23 02:08:00,
2013-03-22 22:13:00,30.1,6.1,29.67,SW,225,2.7,8.7,36,0.00,,,0.00,WUHU216HW,2013-03-23 02:13:00,
2013-03-22 22:18:00,30.1,6.8,29.67,West,270,1.1,3.1,37,0.00,,,0.00,WUHU216HW,2013-03-23 02:18:00,
2013-03-22 22:23:00,30.2,7.6,29.67,WSW,248,3.4,3.4,38,0.00,,,0.00,WUHU216HW,2013-03-23 02:23:00,
2013-03-22 22:28:00,30.4,6.5,29.67,West,270,3.6,4.9,36,0.00,,,0.00,WUHU216HW,2013-03-23 02:28:00,
2013-03-22 22:33:00,30.8,4.2,29.67,WSW,248,4.0,4.9,32,0.00,,,0.00,WUHU216HW,2013-03-23 02:33:00,
2013-03-22 22:38:00,30.6,7.3,29.67,WNW,293,3.6,5.4,37,0.00,,,0.00,WUHU216HW,2013-03-23 02:38:00,
2013-03-22 22:43:00,30.6,6.0,29.66,West,270,5.1,7.6,35,0.00,,,0.00,WUHU216HW,2013-03-23 02:43:00,
2013-03-22 22:48:00,30.6,7.9,29.66,NW,315,4.0,8.9,38,0.00,,,0.00,WUHU216HW,2013-03-23 02:48:00,
2013-03-22 22:53:00,31.0,7.6,29.66,WNW,293,5.8,8.9,37,0.00,,,0.00,WUHU216HW,2013-03-23 02:53:00,
2013-03-22 22:58:00,30.8,8.0,29.66,West,270,3.1,8.9,38,0.00,,,0.00,WUHU216HW,2013-03-23 02:58:00,
2013-03-22 23:03:00,30.8,8.6,29.66,WNW,293,2.5,8.9,39,0.00,,,0.00,WUHU216HW,2013-03-23 03:03:00,
2013-03-22 23:08:00,30.6,9.6,29.66,SW,225,3.1,7.2,41,0.00,,,0.00,WUHU216HW,2013-03-23 03:08:00,
2013-03-22 23:13:00,30.4,9.5,29.66,WNW,293,1.3,8.3,41,0.00,,,0.00,WUHU216HW,2013-03-23 03:13:00,
2013-03-22 23:18:00,30.2,9.8,29.66,West,270,6.3,8.5,42,0.00,,,0.00,WUHU216HW,2013-03-23 03:18:00,
2013-03-22 23:23:00,30.1,9.2,29.66,WNW,293,4.9,9.4,41,0.00,,,0.00,WUHU216HW,2013-03-23 03:23:00,
2013-03-22 23:28:00,29.9,9.0,29.66,West,270,4.9,9.4,41,0.00,,,0.00,WUHU216HW,2013-03-23 03:28:00,
2013-03-22 23:33:00,29.9,9.6,29.66,West,270,4.3,6.9,42,0.00,,,0.00,WUHU216HW,2013-03-23 03:33:00,
2013-03-22 23:38:00,29.9,8.5,29.66,SW,225,5.6,8.7,40,0.00,,,0.00,WUHU216HW,2013-03-23 03:38:00,
2013-03-22 23:43:00,29.9,9.0,29.66,West,270,9.2,9.2,41,0.00,,,0.00,WUHU216HW,2013-03-23 03:43:00,
2013-03-22 23:48:00,29.9,9.0,29.66,North,0,5.8,9.2,41,0.00,,,0.00,WUHU216HW,2013-03-23 03:48:00,
2013-03-22 23:53:00,29.9,9.0,29.66,WNW,293,4.3,9.2,41,0.00,,,0.00,WUHU216HW,2013-03-23 03:53:00,
2013-03-22 23:58:00,29.9,10.0,29.66,NW,315,5.8,8.5,43,0.00,,,0.00,WUHU216HW,2013-03-23 03:58:00,